Weather reports worldwide

Advertisment
Le Puy, France (7471): temperature & dewpoint: 15.02.2020 04:00:00 - 21.02.2020 04:00:00 (CET)Le Puy, France (7471): temperature 5cm: 15.02.2020 04:00:00 - 21.02.2020 04:00:00 (CET)Le Puy, France (7471): temperature -20cm & temperature -100cm: 15.02.2020 04:00:00 - 21.02.2020 04:00:00 (CET)Le Puy, France (7471): wind speed & gusts: 15.02.2020 04:00:00 - 21.02.2020 04:00:00 (CET)Le Puy, France (7471): wind direction: 15.02.2020 04:00:00 - 21.02.2020 04:00:00 (CET)Le Puy, France (7471): visibility: 15.02.2020 04:00:00 - 21.02.2020 04:00:00 (CET)Le Puy, France (7471): sunshine duration: 15.02.2020 04:00:00 - 21.02.2020 04:00:00 (CET)Le Puy, France (7471): precipitation: 15.02.2020 04:00:00 - 21.02.2020 04:00:00 (CET)
Date & Time tt [°C] td [°C] tt 5cm [°C] tt -20cm [°C] tt -100cm [°C] ff [km/h] ff [kn] fx [km/h] fx [kn] dd vv [km] sd [min] rr [mm]
21.02.2020 04:00:00 - - - - - - - - - - - - -
21.02.2020 03:00:00 5,9 2,7 5,5 5,8 7,0 9 5 18 10 WNW 20 0 0,0
21.02.2020 02:00:00 6,2 1,5 6,1 5,8 7,0 8 5 15 8 WNW 20 0 0,0
21.02.2020 01:00:00 6,6 1,5 6,2 5,9 7,0 8 5 22 12 WNW 20 0 0,0
21.02.2020 00:00:00 6,3 1,6 4,5 5,9 7,0 8 4 19 10 W 20 0 0,0
20.02.2020 23:00:00 5,1 0,5 0,6 5,9 7,0 8 4 17 9 W 20 0 0,0
20.02.2020 22:00:00 5,2 -2,9 2,8 5,9 7,0 5 3 16 9 SW 20 0 0,0
20.02.2020 21:00:00 6,0 -3,9 -0,4 5,8 7,0 10 5 14 8 W 20 0 0,0
20.02.2020 20:00:00 6,9 -3,9 4,1 5,7 7,0 6 3 28 15 S 20 0 0,0
20.02.2020 19:00:00 9,0 -3,9 7,9 5,6 7,0 12 7 22 12 W 20 0 0,0
20.02.2020 18:00:00 11,0 -5,5 9,8 5,5 7,0 11 6 24 13 WSW 20 52 0,0
20.02.2020 17:00:00 13,5 -5,2 15,6 5,3 7,0 14 8 36 20 W 20 60 0,0
20.02.2020 16:00:00 13,8 -6,5 16,1 5,2 7,0 24 13 - - WSW 20 60 0,0
20.02.2020 15:00:00 14,4 -2,5 17,5 5,1 7,0 - - - - - 20 60 0,0
20.02.2020 14:00:00 14,6 -4,7 18,8 5,0 7,0 - - - - - 20 60 0,0
20.02.2020 13:00:00 10,6 2,9 11,3 5,0 7,0 - - - - - 20 60 0,0
20.02.2020 12:00:00 5,7 3,4 8,1 5,1 7,0 - - - - - 19 57 0,0
20.02.2020 11:00:00 2,2 2,2 2,2 5,1 7,0 3 1 6 4 N 0,7 33 0,0
20.02.2020 10:00:00 -0,4 -0,5 0,3 5,2 7,0 3 1 6 4 WNW 0,1 0 0,0
20.02.2020 09:00:00 -0,9 -1,0 -2,5 5,2 7,0 0 0 4 2 N 0,4 10 0,0
20.02.2020 08:00:00 -1,5 -1,6 -4,2 5,3 7,0 0 0 22 12 N 0,3 0 0,0
20.02.2020 07:00:00 -2,3 -2,7 -5,0 5,3 7,0 0 0 9 5 N 20 0 0,0
20.02.2020 06:00:00 -1,2 -1,6 -1,9 5,4 7,0 3 2 5 3 WSW 0,7 0 0,0
20.02.2020 05:00:00 0,2 0,1 -2,1 5,4 7,0 3 2 8 4 W 2,0 0 0,0
20.02.2020 04:00:00 1,1 0,5 -1,4 5,4 7,0 4 2 9 5 NNW 1,8 0 0,0
20.02.2020 03:00:00 2,4 1,8 0,8 5,4 7,0 4 2 7 4 S 20 0 0,0
20.02.2020 02:00:00 2,0 1,4 0,1 5,4 7,0 0 0 7 4 N 19 0 0,0
20.02.2020 01:00:00 3,1 2,1 3,0 5,5 7,0 3 2 5 3 SE 20 0 0,0
20.02.2020 00:00:00 3,4 2,2 2,9 5,5 7,0 3 1 5 3 S 20 0 0,0
19.02.2020 23:00:00 3,5 1,9 2,8 5,4 7,0 0 0 5 3 N 20 0 0,0
19.02.2020 22:00:00 3,8 2,2 2,6 5,4 7,0 2 1 5 3 NNW 16 0 0,0
19.02.2020 21:00:00 3,7 2,1 2,9 5,4 7,0 2 1 8 5 SE 20 0 0,0
19.02.2020 20:00:00 4,5 1,9 4,1 5,3 7,0 6 3 24 13 N 20 0 0,0
19.02.2020 19:00:00 5,7 1,2 5,0 5,2 7,0 10 5 21 12 NW 20 0 0,0
19.02.2020 18:00:00 6,1 1,0 5,8 5,2 7,0 13 7 27 15 NW 20 0 0,0
19.02.2020 17:00:00 6,7 1,0 6,7 5,1 7,0 18 10 29 16 NW 20 0 0,0
19.02.2020 16:00:00 7,2 1,9 7,7 5,1 7,0 15 8 29 16 NW 20 1 0,0
19.02.2020 15:00:00 6,9 2,6 7,0 5,0 7,0 24 13 43 23 NNW 20 13 0,0
19.02.2020 14:00:00 7,8 2,7 6,2 5,0 7,0 20 11 36 19 NW 20 19 0,0
19.02.2020 13:00:00 6,2 2,8 5,3 5,0 7,0 17 9 37 20 WNW 20 1 0,2
19.02.2020 12:00:00 6,1 2,0 5,1 5,0 7,0 20 11 37 20 WNW 20 7 0,0
19.02.2020 11:00:00 6,0 0,9 6,6 5,1 7,0 14 8 27 14 WNW 20 25 0,0
19.02.2020 10:00:00 4,9 0,7 4,5 5,1 7,0 13 7 33 18 W 20 26 0,0
19.02.2020 09:00:00 3,8 0,3 2,6 5,2 7,0 16 9 35 19 W 20 21 0,0
19.02.2020 08:00:00 2,9 -0,2 1,8 5,2 7,0 13 7 26 14 W 20 0 0,0
19.02.2020 07:00:00 2,5 -0,4 1,4 5,3 7,0 6 3 22 12 W 20 0 0,0
19.02.2020 06:00:00 2,4 0,0 1,4 5,4 7,0 10 5 24 13 WNW 20 0 0,0
19.02.2020 05:00:00 2,4 -0,4 0,7 5,4 7,0 4 2 18 10 WNW 20 0 0,0
19.02.2020 04:00:00 2,0 -0,3 1,0 5,5 7,0 3 2 9 5 SE 20 0 0,0
19.02.2020 03:00:00 1,7 -0,6 0,2 5,5 7,0 5 3 16 9 SSW 20 0 0,0
19.02.2020 02:00:00 2,7 -0,6 1,6 5,6 7,0 6 3 20 11 SW 20 0 0,0
19.02.2020 01:00:00 2,9 -0,7 1,9 5,6 7,0 9 5 16 9 SW 20 0 0,0
19.02.2020 00:00:00 3,0 -0,6 1,1 5,7 7,0 8 4 19 10 W 20 0 0,0
18.02.2020 23:00:00 3,0 -0,6 2,2 5,7 7,0 11 6 22 12 W 20 0 0,0
18.02.2020 22:00:00 2,8 -0,8 1,9 5,7 7,0 11 6 24 13 W 20 0 0,0
18.02.2020 21:00:00 2,6 -1,2 1,2 5,7 7,0 13 7 25 14 W 20 0 0,0
18.02.2020 20:00:00 1,9 -1,9 0,2 5,7 7,0 10 5 16 9 W 20 0 0,0
18.02.2020 19:00:00 2,2 -2,7 1,2 5,6 7,0 7 4 14 7 W 20 0 0,0
18.02.2020 18:00:00 4,7 -3,3 3,9 5,6 7,0 8 5 22 12 WNW 20 38 0,0
18.02.2020 17:00:00 6,1 -1,8 5,6 5,5 7,0 10 5 28 15 WNW 20 25 0,0
18.02.2020 16:00:00 6,4 -2,0 7,7 5,4 7,0 16 9 27 15 WNW 20 54 0,0
18.02.2020 15:00:00 6,0 -2,1 7,4 5,4 7,0 17 9 26 14 NW 20 3 0,0
18.02.2020 14:00:00 6,4 -1,5 6,9 5,3 7,0 11 6 27 14 NW 20 22 0,0
18.02.2020 13:00:00 5,3 -2,3 7,6 5,4 7,0 14 7 26 14 WNW 20 39 0,0
18.02.2020 12:00:00 5,4 -0,9 6,0 5,4 7,0 11 6 21 12 NNW 20 27 0,0
18.02.2020 11:00:00 4,0 -0,2 4,3 5,5 7,0 4 2 10 6 NW 20 28 0,0
18.02.2020 10:00:00 1,0 0,0 0,5 5,6 7,0 4 2 11 6 NNW 20 4 0,0
18.02.2020 09:00:00 0,4 -0,7 -1,1 5,6 7,0 0 0 6 4 N 20 43 0,0
18.02.2020 08:00:00 -0,1 -1,1 -0,9 5,7 7,0 6 3 8 4 WSW 20 0 0,0
18.02.2020 07:00:00 0,9 -0,4 -0,3 5,7 7,0 4 2 16 9 W 20 0 0,0
18.02.2020 06:00:00 0,3 -0,6 -1,9 5,8 7,0 4 2 6 3 WSW 20 0 0,0
18.02.2020 05:00:00 0,6 -1,0 -0,9 5,8 7,0 4 2 21 11 W 20 0 0,0
18.02.2020 04:00:00 1,9 -0,5 0,4 5,9 7,0 12 7 19 11 WNW 20 0 0,0
18.02.2020 03:00:00 2,2 0,6 0,9 5,9 7,0 3 2 14 8 NW 20 0 0,0
18.02.2020 02:00:00 2,6 0,7 1,5 5,9 7,0 11 6 26 14 WNW 20 0 0,0
18.02.2020 01:00:00 3,5 1,2 2,6 6,0 7,0 8 4 20 11 WSW 20 0 0,4
18.02.2020 00:00:00 3,6 2,0 3,1 6,0 7,0 11 6 22 12 W 7 0 0,4
17.02.2020 23:00:00 4,3 1,7 3,2 6,0 7,0 9 5 29 15 NW 20 0 0,0
17.02.2020 22:00:00 4,1 2,3 2,0 6,0 7,0 12 7 25 13 W 12 0 0,6
17.02.2020 21:00:00 2,7 1,1 1,6 6,0 7,0 3 1 9 5 E 15 0 0,0
17.02.2020 20:00:00 3,7 0,9 1,8 6,0 7,0 3 1 19 10 W 20 0 0,0
17.02.2020 19:00:00 5,4 2,2 4,7 5,9 7,0 9 5 17 9 W 20 0 0,0
17.02.2020 18:00:00 6,3 3,1 5,5 5,9 7,0 8 5 18 10 W 20 0 0,0
17.02.2020 17:00:00 7,4 5,4 6,5 5,9 7,0 10 5 24 13 NW 11 0 0,2
17.02.2020 16:00:00 6,7 4,5 6,4 5,8 7,0 10 6 23 13 W 20 0 0,0
17.02.2020 15:00:00 6,6 4,4 6,4 5,7 7,0 14 8 33 18 WNW 20 0 0,0
17.02.2020 14:00:00 8,1 5,7 7,7 5,7 7,0 19 11 34 19 WNW 12 0 0,0
17.02.2020 13:00:00 10,2 6,3 10,7 5,7 7,0 11 6 25 14 WSW 20 0 0,0
17.02.2020 12:00:00 9,8 6,3 10,4 5,6 7,0 13 7 27 15 S 20 0 0,0
17.02.2020 11:00:00 10,3 6,3 10,6 5,6 7,0 9 5 25 13 S 20 0 0,0
17.02.2020 10:00:00 9,4 6,3 8,6 5,6 7,0 9 5 19 11 S 20 0 0,0
17.02.2020 09:00:00 8,5 5,6 8,1 5,6 7,0 11 6 26 14 SSE 20 0 0,0
17.02.2020 08:00:00 8,4 5,5 8,0 5,6 7,0 16 9 38 21 SSE 20 0 0,0
17.02.2020 07:00:00 8,4 5,5 8,0 5,6 7,0 20 11 40 21 SSE 20 0 0,0
17.02.2020 06:00:00 8,3 5,4 7,9 5,6 7,0 26 14 40 22 SSE 20 0 0,0
17.02.2020 05:00:00 8,3 5,4 7,8 5,6 7,0 23 12 42 23 SSE 20 0 0,0
17.02.2020 04:00:00 8,2 5,1 6,8 5,5 7,0 24 13 38 20 SSE 20 0 0,0
17.02.2020 03:00:00 8,4 4,8 7,5 5,5 7,0 10 5 61 33 SW 20 0 0,0
17.02.2020 02:00:00 8,4 5,3 8,0 5,5 7,0 23 13 37 20 ESE 20 0 0,0
17.02.2020 01:00:00 8,4 5,5 8,1 5,4 7,0 22 12 40 21 SSE 20 0 0,0
17.02.2020 00:00:00 8,4 5,5 7,9 5,4 7,0 21 12 48 26 SSE 20 0 0,0
16.02.2020 23:00:00 8,4 5,5 8,0 5,4 7,0 29 16 59 32 S 20 0 0,0
16.02.2020 22:00:00 8,8 5,7 8,4 5,2 7,0 26 14 49 26 S 20 0 0,0
16.02.2020 21:00:00 8,7 5,6 8,2 5,2 7,0 27 15 52 28 S 20 0 0,0
16.02.2020 20:00:00 8,7 5,6 8,1 5,2 7,0 31 17 55 30 S 20 0 0,0
16.02.2020 19:00:00 8,9 5,5 8,5 5,1 7,0 27 15 47 26 SSE 20 0 0,0
16.02.2020 18:00:00 9,3 5,5 9,1 5,0 7,0 29 16 50 27 SSE 20 20 0,0
16.02.2020 17:00:00 9,9 5,7 10,1 4,9 7,0 27 15 58 31 SSE 20 8 0,0
16.02.2020 16:00:00 9,9 5,5 10,8 4,9 7,0 32 18 54 29 SSE 20 0 0,0
16.02.2020 15:00:00 10,1 5,7 11,5 4,8 7,0 32 17 57 31 S 20 0 0,0
16.02.2020 14:00:00 10,1 5,9 11,5 4,8 7,0 26 14 52 28 S 20 0 0,0
16.02.2020 13:00:00 10,2 5,6 11,0 4,8 7,0 22 12 48 26 SSE 20 0 0,0
16.02.2020 12:00:00 9,9 5,5 10,8 4,8 7,0 23 13 53 28 SSE 20 16 0,0
16.02.2020 11:00:00 10,3 5,7 9,1 4,9 7,0 23 12 37 20 S 20 16 0,0
16.02.2020 10:00:00 7,0 4,5 5,7 5,0 7,0 0 0 13 7 N 20 0 0,0
16.02.2020 09:00:00 6,6 3,6 0,7 5,0 7,0 5 3 19 10 NW 20 17 0,0
16.02.2020 08:00:00 2,2 0,1 -0,5 5,1 7,0 2 1 8 5 E 20 0 0,0
16.02.2020 07:00:00 2,1 0,0 -0,5 5,2 7,0 3 2 9 5 SSE 20 0 0,0
16.02.2020 06:00:00 2,5 0,6 -1,2 5,2 7,0 3 2 8 5 ENE 20 0 0,0
16.02.2020 05:00:00 2,4 0,3 -1,7 5,3 7,0 4 2 8 4 SW 20 0 0,0
16.02.2020 04:00:00 1,3 -0,3 -2,3 5,3 7,0 0 0 8 5 N 20 0 0,0
16.02.2020 03:00:00 1,5 -0,7 -0,5 5,4 7,0 2 1 10 5 WSW 20 0 0,0
16.02.2020 02:00:00 2,4 0,6 -1,6 5,4 7,0 9 5 12 7 SW 20 0 0,0
16.02.2020 01:00:00 2,6 -0,5 0,1 5,4 7,0 6 3 10 5 SW 20 0 0,0
16.02.2020 00:00:00 5,7 0,5 -0,4 5,4 7,0 7 4 15 8 NW 20 0 0,0
15.02.2020 23:00:00 5,5 1,4 0,3 5,4 7,0 4 2 9 5 NNW 20 0 0,0
15.02.2020 22:00:00 6,9 1,4 1,7 5,4 7,0 9 5 18 10 S 20 0 0,0
15.02.2020 21:00:00 5,5 1,8 1,6 5,3 7,0 2 1 10 5 NNE 20 0 0,0
15.02.2020 20:00:00 7,4 2,1 5,2 5,2 7,0 5 3 17 9 S 20 0 0,0
15.02.2020 19:00:00 7,6 1,4 5,7 5,1 7,0 3 1 18 10 S 20 0 0,0
15.02.2020 18:00:00 10,2 1,8 8,8 4,9 7,0 12 7 25 14 S 20 7 0,0
15.02.2020 17:00:00 13,6 2,2 15,4 4,8 7,0 15 8 24 13 SSE 20 60 0,0
15.02.2020 16:00:00 14,7 1,2 17,8 4,7 7,0 17 9 33 18 SSE 20 60 0,0
15.02.2020 15:00:00 15,3 0,7 17,6 4,6 7,0 18 10 32 18 SSE 20 60 0,0
15.02.2020 14:00:00 15,4 -0,8 17,8 4,6 7,0 12 7 27 14 SSE 20 60 0,0
15.02.2020 13:00:00 14,3 -0,2 17,7 4,6 7,0 16 8 28 15 SSE 20 60 0,0
15.02.2020 12:00:00 8,3 3,9 14,3 4,7 7,0 2 1 7 4 N 20 60 0,0
15.02.2020 11:00:00 3,1 2,2 6,0 4,7 7,0 3 2 6 4 NNW 20 60 0,0
15.02.2020 10:00:00 0,1 0,0 -1,9 4,8 7,0 0 0 5 3 N 16 57 0,0
15.02.2020 09:00:00 -4,0 -4,3 -5,8 4,9 7,0 0 0 4 2 N 0,2 19 0,0
15.02.2020 08:00:00 -4,4 -4,9 -6,1 5,0 7,0 0 0 8 4 N 19 0 0,0
15.02.2020 07:00:00 -3,0 -3,1 -2,6 5,1 7,0 3 1 8 4 W 0,2 0 0,0
15.02.2020 06:00:00 -2,8 -3,1 -2,6 5,2 7,0 0 0 7 4 N 0,1 0 0,0
15.02.2020 05:00:00 -2,9 -3,0 -6,3 5,2 7,0 4 2 8 4 WSW 0,3 0 0,0
15.02.2020 04:00:00 -4,1 -5,1 -5,3 5,3 7,0 3 2 5 3 SW 20 0 0,0

tt = temperature
td = dewpoint
tt 5cm = temperature 5cm
tt -20cm = temperature -20cm
tt -100cm = temperature -100cm
ff = wind speed
fx = gusts
dd = wind direction
vv = visibility
sd = sunshine duration
rr = precipitation

Next stations